Time;durP1;ratioP1;P1;durP2;ratioP2;P2;SDS_P1;SDS_P2;PMS_P1;PMS_P2;Temp;Humidity;BMP_temperature;BMP_pressure;BME280_temperature;BME280_humidity;BME280_pressure;Samples;Min_cycle;Max_cycle;Signal;HPM_P1;HPM_P2
2021/06/07 00:00:56;;;;;;;7.85;4.25;;;;;;;16.77;85.27;96572.09;5038122;28;20068;-65
2021/06/07 00:03:22;;;;;;;7.88;4.10;;;;;;;16.76;85.19;96569.66;5034985;28;20388;-66
2021/06/07 00:05:48;;;;;;;7.13;3.75;;;;;;;16.74;85.33;96572.78;5031389;28;20048;-66
2021/06/07 00:08:16;;;;;;;8.45;3.75;;;;;;;16.74;85.27;96566.47;5030713;28;20689;-65
2021/06/07 00:10:42;;;;;;;10.15;4.00;;;;;;;16.71;85.41;96565.25;5031272;28;20042;-65
2021/06/07 00:13:10;;;;;;;10.23;4.30;;;;;;;16.71;85.45;96570.75;5030624;28;20038;-66
2021/06/07 00:15:36;;;;;;;10.15;4.40;;;;;;;16.73;85.54;96568.44;5031179;28;20046;-65
2021/06/07 00:18:03;;;;;;;9.02;3.88;;;;;;;16.72;85.34;96568.78;5030967;28;20053;-66
2021/06/07 00:20:31;;;;;;;9.30;4.63;;;;;;;16.67;85.52;96567.06;5030784;28;20045;-68
2021/06/07 00:22:58;;;;;;;6.93;3.60;;;;;;;16.66;85.61;96568.22;5031114;28;20084;-68
2021/06/07 00:25:26;;;;;;;13.23;4.32;;;;;;;16.65;85.58;96566.59;5030392;28;20488;-67
2021/06/07 00:27:52;;;;;;;7.03;4.28;;;;;;;16.66;85.76;96559.97;5030931;28;20504;-67
2021/06/07 00:30:18;;;;;;;7.28;4.25;;;;;;;16.68;85.73;96569.44;5032061;28;20072;-67
2021/06/07 00:32:44;;;;;;;9.65;4.70;;;;;;;16.69;85.83;96564.75;5040172;28;20045;-67
2021/06/07 00:35:12;;;;;;;8.05;4.30;;;;;;;16.70;85.91;96571.84;5030331;28;20099;-68
2021/06/07 00:37:38;;;;;;;7.15;4.00;;;;;;;16.70;85.94;96571.84;5030874;28;20048;-67
2021/06/07 00:40:05;;;;;;;11.88;4.82;;;;;;;16.72;86.01;96568.78;5030191;28;20424;-68
2021/06/07 00:42:32;;;;;;;8.43;4.13;;;;;;;16.72;85.93;96568.78;5030813;28;20045;-67
2021/06/07 00:44:58;;;;;;;6.85;3.75;;;;;;;16.72;86.00;96568.78;5030826;28;20052;-67
2021/06/07 00:47:25;;;;;;;10.77;4.45;;;;;;;16.71;85.98;96570.75;5030246;28;20404;-67
2021/06/07 00:49:51;;;;;;;8.23;4.22;;;;;;;16.73;85.97;96570.38;5030502;28;20459;-67
2021/06/07 00:52:17;;;;;;;10.63;4.05;;;;;;;16.74;85.94;96569.22;5030111;28;20041;-67
2021/06/07 00:54:42;;;;;;;8.45;4.05;;;;;;;16.72;86.20;96564.09;5030572;28;20495;-67
2021/06/07 00:57:08;;;;;;;10.43;4.38;;;;;;;16.72;85.88;96564.09;5030078;28;20128;-67
2021/06/07 00:59:36;;;;;;;8.02;4.30;;;;;;;16.72;85.88;96575.09;5030808;28;20046;-67
2021/06/07 01:02:02;;;;;;;11.40;4.80;;;;;;;16.72;85.96;96569.59;5041245;28;20050;-67
2021/06/07 01:04:28;;;;;;;8.88;4.40;;;;;;;16.70;85.95;96572.66;5030732;28;20049;-66
2021/06/07 01:06:54;;;;;;;7.47;4.43;;;;;;;16.71;85.99;96573.50;5030700;28;20046;-66
2021/06/07 01:09:20;;;;;;;8.18;4.22;;;;;;;16.70;85.85;96572.66;5029958;28;20048;-66
2021/06/07 01:11:46;;;;;;;9.18;4.07;;;;;;;16.72;85.84;96564.09;5030644;28;20107;-66
2021/06/07 01:14:12;;;;;;;6.90;3.90;;;;;;;16.72;85.33;96569.59;5030188;28;20049;-66
2021/06/07 01:16:39;;;;;;;7.65;4.20;;;;;;;16.68;85.20;96568.66;5030656;28;20038;-66
2021/06/07 01:19:07;;;;;;;7.88;4.07;;;;;;;16.65;85.29;96563.84;5030036;28;20381;-66
2021/06/07 01:21:34;;;;;;;6.72;4.00;;;;;;;16.65;85.44;96563.84;5030535;28;20048;-65
2021/06/07 01:24:01;;;;;;;7.88;3.97;;;;;;;16.65;85.51;96563.84;5030265;28;20037;-66
2021/06/07 01:26:27;;;;;;;8.60;4.47;;;;;;;16.65;85.35;96558.34;5030165;28;20053;-67
2021/06/07 01:28:55;;;;;;;9.88;4.40;;;;;;;16.64;85.18;96556.75;5030365;28;20053;-67
2021/06/07 01:31:22;;;;;;;7.65;4.15;;;;;;;16.62;85.19;96561.81;5041118;28;20041;-67
2021/06/07 01:33:51;;;;;;;7.47;4.38;;;;;;;16.60;85.40;96566.84;5034639;28;20053;-67
2021/06/07 01:36:17;;;;;;;6.13;3.97;;;;;;;16.57;85.53;96567.56;5033497;28;20052;-68
2021/06/07 01:38:44;;;;;;;12.77;4.22;;;;;;;16.55;85.53;96559.69;5034114;28;20048;-67
2021/06/07 01:41:16;;;;;;;9.52;4.38;;;;;;;16.53;85.55;96553.72;5033497;28;20053;-68
2021/06/07 01:43:42;;;;;;;6.75;4.35;;;;;;;16.52;85.57;96556.84;5033920;28;20045;-67
2021/06/07 01:46:08;;;;;;;7.68;4.63;;;;;;;16.52;85.68;96559.59;5033459;28;20057;-67
2021/06/07 01:48:36;;;;;;;7.13;4.57;;;;;;;16.51;85.65;96560.72;5033805;28;20053;-67
2021/06/07 01:51:04;;;;;;;9.75;4.20;;;;;;;16.51;85.75;96561.53;5033183;28;20049;-68
2021/06/07 01:53:31;;;;;;;7.88;4.28;;;;;;;16.51;85.68;96552.50;5033475;28;20103;-68
2021/06/07 01:56:01;;;;;;;7.07;4.30;;;;;;;16.52;85.47;96557.63;5033803;28;20111;-67
2021/06/07 01:58:29;;;;;;;6.65;3.95;;;;;;;16.52;85.39;96559.59;5033391;28;20045;-67
2021/06/07 02:00:58;;;;;;;7.22;4.20;;;;;;;16.52;85.46;96559.59;5040058;28;20518;-67
2021/06/07 02:03:25;;;;;;;7.93;4.35;;;;;;;16.50;85.35;96551.69;5037038;28;20045;-67
2021/06/07 02:05:54;;;;;;;7.75;4.57;;;;;;;16.48;85.48;96558.69;5033310;28;20049;-67
2021/06/07 02:08:20;;;;;;;10.75;4.70;;;;;;;16.46;85.29;96550.78;5032971;28;20511;-67
2021/06/07 02:10:52;;;;;;;7.60;4.35;;;;;;;16.47;85.44;96557.09;5033416;28;20053;-67
2021/06/07 02:13:19;;;;;;;8.50;5.05;;;;;;;16.47;85.35;96557.09;5032966;28;20115;-67
2021/06/07 02:15:55;;;;;;;10.10;5.15;;;;;;;16.44;85.30;96556.66;5033202;28;20124;-68
2021/06/07 02:18:21;;;;;;;7.10;4.45;;;;;;;16.41;85.35;96557.34;5032757;28;20061;-67
2021/06/07 02:20:47;;;;;;;9.70;4.75;;;;;;;16.38;85.33;96555.28;5033150;28;20045;-67
2021/06/07 02:23:13;;;;;;;8.80;4.82;;;;;;;16.37;85.42;96559.19;5032857;28;20046;-67
2021/06/07 02:25:39;;;;;;;8.18;5.03;;;;;;;16.36;85.40;96552.09;5033075;28;20037;-67
2021/06/07 02:28:10;;;;;;;7.60;4.85;;;;;;;16.36;85.36;96554.84;5032701;28;20057;-67
2021/06/07 02:30:37;;;;;;;8.43;4.70;;;;;;;16.34;85.32;96551.66;5034466;28;20423;-67
2021/06/07 02:33:04;;;;;;;11.10;5.35;;;;;;;16.32;85.27;96548.44;5039569;28;20075;-65
2021/06/07 02:35:30;;;;;;;7.50;4.80;;;;;;;16.29;85.29;96557.41;5032857;28;20045;-67
2021/06/07 02:37:57;;;;;;;9.55;5.57;;;;;;;16.25;85.32;96551.00;5032986;28;20042;-65
2021/06/07 02:40:25;;;;;;;7.70;4.90;;;;;;;16.24;85.39;96560.41;5032476;28;20115;-66
2021/06/07 02:42:51;;;;;;;8.93;4.70;;;;;;;16.23;85.38;96547.78;5032707;28;20072;-67
2021/06/07 02:45:20;;;;;;;8.65;4.88;;;;;;;16.22;85.60;96554.44;5032152;28;20060;-66
2021/06/07 02:47:48;;;;;;;9.57;5.30;;;;;;;16.21;85.79;96549.28;5032730;28;20045;-65
2021/06/07 02:50:18;;;;;;;9.50;5.15;;;;;;;16.23;85.82;96553.28;5032040;28;20068;-65
2021/06/07 02:52:47;;;;;;;10.60;5.43;;;;;;;16.25;86.03;96551.00;5032571;28;20045;-65
2021/06/07 02:55:19;;;;;;;7.47;4.60;;;;;;;16.29;85.97;96557.41;5032018;28;20037;-65
2021/06/07 02:57:46;;;;;;;10.43;5.18;;;;;;;16.31;86.00;96560.59;5032651;28;20053;-66
2021/06/07 03:00:14;;;;;;;12.23;5.78;;;;;;;16.34;85.88;96556.31;5033355;28;20599;-66
2021/06/07 03:02:40;;;;;;;7.85;4.88;;;;;;;16.34;85.85;96557.16;5042608;28;20684;-66
2021/06/07 03:05:07;;;;;;;6.70;4.75;;;;;;;16.35;85.87;96558.75;5031894;28;20061;-66
2021/06/07 03:07:35;;;;;;;10.13;5.78;;;;;;;16.37;85.95;96553.69;5032414;28;20041;-66
2021/06/07 03:10:01;;;;;;;8.40;5.40;;;;;;;16.39;85.99;96564.31;5032081;28;20559;-66
2021/06/07 03:12:27;;;;;;;10.70;5.40;;;;;;;16.40;86.04;96553.00;5032131;28;20057;-66
2021/06/07 03:14:52;;;;;;;7.18;4.97;;;;;;;16.44;85.42;96553.06;5032091;28;20661;-66
2021/06/07 03:17:18;;;;;;;8.10;4.95;;;;;;;16.45;85.60;96554.69;5031760;28;20084;-66
2021/06/07 03:19:44;;;;;;;7.45;4.72;;;;;;;16.48;85.48;96548.47;5032120;28;20748;-66
2021/06/07 03:22:11;;;;;;;7.70;5.10;;;;;;;16.49;85.28;96554.78;5031653;28;20060;-66
2021/06/07 03:24:38;;;;;;;7.85;4.55;;;;;;;16.46;85.42;96545.28;5032024;28;20053;-66
2021/06/07 03:27:05;;;;;;;9.75;5.25;;;;;;;16.43;85.51;96548.72;5031402;28;20049;-66
2021/06/07 03:29:31;;;;;;;8.65;5.43;;;;;;;16.44;85.59;96551.16;5031965;28;20045;-66
2021/06/07 03:31:58;;;;;;;8.60;5.00;;;;;;;16.47;85.72;96554.34;5044176;28;20124;-66
2021/06/07 03:34:24;;;;;;;7.65;5.20;;;;;;;16.48;85.77;96553.19;5031329;28;20049;-66
2021/06/07 03:36:49;;;;;;;9.20;5.55;;;;;;;16.49;85.87;96554.78;5031775;28;20401;-65
2021/06/07 03:39:15;;;;;;;11.05;5.15;;;;;;;16.50;85.83;96562.69;5031260;28;20057;-66
2021/06/07 03:41:43;;;;;;;10.02;5.60;;;;;;;16.50;85.93;96568.19;5031709;28;20061;-66
2021/06/07 03:44:09;;;;;;;9.07;5.50;;;;;;;16.50;85.89;96564.63;5031161;28;20562;-66
2021/06/07 03:46:35;;;;;;;9.95;5.43;;;;;;;16.52;85.84;96565.88;5031608;28;20053;-65
2021/06/07 03:49:01;;;;;;;12.88;5.75;;;;;;;16.53;85.63;96569.41;5031408;28;20046;-67
2021/06/07 03:51:27;;;;;;;10.52;6.25;;;;;;;16.51;85.62;96568.97;5031002;28;20050;-66
2021/06/07 03:53:53;;;;;;;10.57;5.72;;;;;;;16.51;85.58;96568.97;5031071;28;20048;-65
2021/06/07 03:56:19;;;;;;;9.55;5.93;;;;;;;16.52;85.33;96567.81;5030779;28;20056;-65
2021/06/07 03:58:46;;;;;;;10.45;6.00;;;;;;;16.52;85.22;96570.56;5031596;28;20053;-65
2021/06/07 04:01:12;;;;;;;11.60;6.88;;;;;;;16.51;85.46;96568.97;5040441;28;20048;-66
2021/06/07 04:03:38;;;;;;;9.63;6.00;;;;;;;16.52;85.59;96567.81;5033654;28;20048;-65
2021/06/07 04:06:05;;;;;;;10.57;6.00;;;;;;;16.51;85.61;96571.72;5030844;28;20515;-66
2021/06/07 04:08:31;;;;;;;9.60;6.10;;;;;;;16.50;85.62;96568.19;5031447;28;20052;-66
2021/06/07 04:10:57;;;;;;;14.75;6.43;;;;;;;16.50;85.67;96567.38;5031320;28;20045;-65
2021/06/07 04:13:23;;;;;;;11.32;6.35;;;;;;;16.51;85.68;96563.47;5030762;28;20496;-66
2021/06/07 04:15:50;;;;;;;10.05;6.13;;;;;;;16.50;85.63;96564.63;5031139;28;20105;-66
2021/06/07 04:18:16;;;;;;;10.88;6.70;;;;;;;16.50;85.61;96567.38;5030676;28;20416;-66
2021/06/07 04:20:42;;;;;;;11.13;5.90;;;;;;;16.50;85.81;96573.69;5031003;28;20065;-66
2021/06/07 04:23:09;;;;;;;10.00;6.30;;;;;;;16.51;85.68;96574.47;5030552;28;20432;-66
2021/06/07 04:25:36;;;;;;;9.80;5.88;;;;;;;16.52;85.70;96579.63;5031073;28;20412;-66
2021/06/07 04:28:03;;;;;;;10.95;6.97;;;;;;;16.54;85.72;96568.25;5030525;28;20042;-67
2021/06/07 04:30:31;;;;;;;10.70;6.72;;;;;;;16.54;85.81;96580.06;5034531;28;20049;-66
2021/06/07 04:32:59;;;;;;;9.50;6.45;;;;;;;16.56;85.74;96587.97;5038640;28;20050;-66
2021/06/07 04:35:26;;;;;;;11.38;6.32;;;;;;;16.59;85.61;96581.75;5030416;28;20045;-66
2021/06/07 04:37:53;;;;;;;11.52;5.90;;;;;;;16.62;85.54;96583.81;5030679;28;20042;-66
2021/06/07 04:40:22;;;;;;;10.40;6.50;;;;;;;16.64;85.06;96581.50;5030425;28;20065;-66
2021/06/07 04:42:48;;;;;;;13.32;7.15;;;;;;;16.66;85.02;96584.72;5030810;28;20115;-66
2021/06/07 04:45:15;;;;;;;10.57;6.53;;;;;;;16.64;85.24;96585.03;5030450;28;20045;-66
2021/06/07 04:47:40;;;;;;;9.13;6.50;;;;;;;16.64;85.26;96578.75;5030886;28;20045;-66
2021/06/07 04:50:11;;;;;;;8.02;6.00;;;;;;;16.65;85.15;96580.34;5029982;28;20061;-66
2021/06/07 04:52:56;;;;;;;11.45;6.45;;;;;;;16.68;85.20;96588.69;5030419;28;20144;-66
2021/06/07 04:55:24;;;;;;;9.48;6.40;;;;;;;16.72;85.25;96580.59;5030329;28;20393;-66
2021/06/07 04:57:50;;;;;;;11.40;6.03;;;;;;;16.77;85.35;96585.03;5030587;28;20046;-66
2021/06/07 05:00:18;;;;;;;12.77;6.85;;;;;;;16.82;85.00;96585.56;5032289;28;20412;-66
2021/06/07 05:02:44;;;;;;;10.38;6.68;;;;;;;16.83;84.56;96581.66;5040011;28;20041;-66
2021/06/07 05:05:12;;;;;;;10.98;6.57;;;;;;;16.84;83.91;96577.75;5030076;28;20522;-66
2021/06/07 05:07:38;;;;;;;7.43;5.70;;;;;;;16.85;83.88;96579.34;5033431;28;20503;-66
2021/06/07 05:10:05;;;;;;;9.20;6.32;;;;;;;16.83;83.85;96581.66;5034031;28;20041;-66
2021/06/07 05:12:31;;;;;;;9.32;6.65;;;;;;;16.79;84.00;96586.25;5034428;28;20049;-66
2021/06/07 05:14:59;;;;;;;9.88;6.72;;;;;;;16.82;84.27;96580.06;5034401;28;20038;-66
2021/06/07 05:17:25;;;;;;;10.65;6.45;;;;;;;16.84;84.47;96587.97;5033987;28;20045;-66
2021/06/07 05:19:51;;;;;;;10.90;7.38;;;;;;;16.85;84.59;96584.06;5034436;28;20519;-66
2021/06/07 05:22:19;;;;;;;8.82;6.45;;;;;;;16.88;83.90;96586.91;5033737;28;20103;-66
2021/06/07 05:24:46;;;;;;;9.98;6.18;;;;;;;16.89;83.58;96585.75;5034397;28;20049;-66
2021/06/07 05:27:12;;;;;;;9.07;6.20;;;;;;;16.92;83.96;96579.56;5033770;28;20607;-66
2021/06/07 05:29:38;;;;;;;10.25;6.50;;;;;;;16.97;83.98;96577.69;5033978;28;20099;-66
2021/06/07 05:32:05;;;;;;;8.82;5.90;;;;;;;16.95;84.04;96578.81;5045760;28;20034;-66
2021/06/07 05:34:31;;;;;;;9.45;6.10;;;;;;;16.96;84.10;96582.38;5034040;28;20049;-66
2021/06/07 05:36:57;;;;;;;10.90;6.82;;;;;;;16.98;84.38;96576.53;5034129;28;20045;-66
2021/06/07 05:39:24;;;;;;;10.73;7.20;;;;;;;17.01;84.57;96589.56;5033447;28;20041;-66
2021/06/07 05:41:51;;;;;;;10.75;6.43;;;;;;;17.06;84.58;96589.31;5033858;28;20045;-66
2021/06/07 05:44:17;;;;;;;9.20;6.50;;;;;;;17.10;84.67;96587.47;5033418;28;20049;-66
2021/06/07 05:46:43;;;;;;;10.20;5.75;;;;;;;17.11;83.42;96597.31;5033799;28;20045;-66
2021/06/07 05:49:09;;;;;;;8.93;5.68;;;;;;;17.13;82.86;96589.50;5033298;28;20052;-66
2021/06/07 05:51:35;;;;;;;9.05;5.47;;;;;;;17.13;83.01;96595.81;5033506;28;20045;-66
2021/06/07 05:54:01;;;;;;;14.20;5.97;;;;;;;17.10;82.96;96591.00;5013597;28;20056;-72
2021/06/07 05:56:28;;;;;;;10.20;4.85;;;;;;;17.07;82.75;96596.41;5052868;28;20041;-72
2021/06/07 05:58:57;;;;;;;8.32;4.82;;;;;;;17.09;81.98;96594.91;5033125;28;20557;-72
2021/06/07 06:01:23;;;;;;;6.72;4.40;;;;;;;17.09;82.16;96594.13;5044862;28;20052;-72
2021/06/07 06:03:50;;;;;;;9.38;5.05;;;;;;;17.14;82.26;96591.91;5033990;28;20052;-73
2021/06/07 06:06:16;;;;;;;6.63;4.78;;;;;;;17.14;82.61;96585.59;5033207;28;20060;-72
2021/06/07 06:08:43;;;;;;;16.80;7.07;;;;;;;17.15;83.08;96593.50;5032471;28;20053;-72
2021/06/07 06:11:08;;;;;;;10.02;5.20;;;;;;;17.15;82.83;96596.25;5032848;28;20041;-72
2021/06/07 06:13:37;;;;;;;8.38;4.95;;;;;;;17.16;82.93;96591.53;5033101;28;20038;-72
2021/06/07 06:16:03;;;;;;;9.18;5.22;;;;;;;17.20;82.71;96595.19;5036836;28;20041;-72
2021/06/07 06:18:29;;;;;;;11.10;5.50;;;;;;;17.19;82.29;96596.34;5052386;28;20041;-73
2021/06/07 06:20:55;;;;;;;8.75;5.00;;;;;;;17.22;81.58;96599.16;5052386;28;20466;-71
2021/06/07 06:23:22;;;;;;;7.05;5.10;;;;;;;17.23;81.54;96605.50;5052606;28;20412;-72
2021/06/07 06:25:48;;;;;;;8.05;5.07;;;;;;;17.26;81.23;96607.53;5052958;28;20449;-73
2021/06/07 06:28:14;;;;;;;8.15;4.75;;;;;;;17.24;81.50;96607.09;5052775;28;20072;-71
2021/06/07 06:30:41;;;;;;;7.65;4.60;;;;;;;17.25;81.32;96605.94;5052264;28;20148;-73
2021/06/07 06:33:08;;;;;;;7.75;4.88;;;;;;;17.24;80.96;96601.59;5039004;28;20480;-73
2021/06/07 06:35:34;;;;;;;8.70;5.15;;;;;;;17.26;81.30;96604.75;5032888;28;20103;-73
2021/06/07 06:38:00;;;;;;;8.30;5.15;;;;;;;17.27;81.51;96600.06;5033098;28;20041;-73
2021/06/07 06:40:29;;;;;;;7.40;4.88;;;;;;;17.29;81.88;96601.31;5033032;28;20049;-73
2021/06/07 06:42:57;;;;;;;9.18;5.53;;;;;;;17.34;82.05;96605.75;5033130;28;20049;-73
2021/06/07 06:45:23;;;;;;;8.57;5.40;;;;;;;17.32;81.60;96616.31;5032630;28;20133;-73
2021/06/07 06:47:56;;;;;;;8.07;5.25;;;;;;;17.30;81.60;96615.88;5033153;28;20075;-73
2021/06/07 06:50:23;;;;;;;11.75;5.25;;;;;;;17.30;81.17;96613.91;5032410;28;20057;-73
2021/06/07 06:52:49;;;;;;;10.10;5.72;;;;;;;17.33;80.95;96615.97;5032654;28;20048;-73
2021/06/07 06:55:15;;;;;;;9.15;5.60;;;;;;;17.36;81.61;96619.94;5032327;28;20045;-73
2021/06/07 06:57:41;;;;;;;8.05;5.10;;;;;;;17.42;82.10;96613.81;5032692;28;20519;-73
2021/06/07 07:00:11;;;;;;;10.95;5.80;;;;;;;17.48;82.26;96617.09;5032898;28;20037;-73
2021/06/07 07:02:38;;;;;;;7.30;4.78;;;;;;;17.52;81.18;96611.69;5043346;28;20041;-73
2021/06/07 07:05:06;;;;;;;7.22;5.07;;;;;;;17.60;81.43;96618.97;5032239;28;20072;-73
2021/06/07 07:07:32;;;;;;;8.32;5.30;;;;;;;17.69;81.32;96628.63;5032623;28;20049;-73
2021/06/07 07:09:58;;;;;;;7.30;4.82;;;;;;;17.71;80.77;96626.31;5032424;28;20037;-71
2021/06/07 07:12:26;;;;;;;8.57;5.25;;;;;;;17.78;80.48;96624.91;5032135;28;20048;-71
2021/06/07 07:14:53;;;;;;;6.55;4.25;;;;;;;17.85;80.51;96620.38;5032246;28;20095;-73
2021/06/07 07:17:19;;;;;;;7.47;4.90;;;;;;;17.99;79.04;96623.44;5031735;28;20049;-71
2021/06/07 07:19:46;;;;;;;8.07;4.57;;;;;;;18.08;78.15;96625.22;5032410;28;20049;-71
2021/06/07 07:22:14;;;;;;;8.07;4.43;;;;;;;18.21;78.01;96621.16;5031815;28;20562;-71
2021/06/07 07:24:44;;;;;;;6.63;4.45;;;;;;;18.36;79.07;96617.56;5032144;28;20042;-71
2021/06/07 07:27:11;;;;;;;6.72;4.30;;;;;;;18.45;76.08;96618.13;5031820;28;20056;-70
2021/06/07 07:29:38;;;;;;;8.13;4.40;;;;;;;18.65;78.00;96609.88;5031402;28;20057;-71
2021/06/07 07:32:05;;;;;;;7.15;3.65;;;;;;;18.76;77.14;96621.94;5043650;28;20432;-73
2021/06/07 07:34:31;;;;;;;7.05;3.60;;;;;;;18.86;77.32;96618.59;5031891;28;20520;-72
2021/06/07 07:36:57;;;;;;;7.68;4.00;;;;;;;18.94;76.78;96614.00;5032112;28;20125;-71
2021/06/07 07:39:24;;;;;;;5.80;3.47;;;;;;;19.11;77.36;96626.53;5031277;28;20045;-71
2021/06/07 07:41:50;;;;;;;5.97;3.47;;;;;;;19.24;76.14;96620.47;5032001;28;20045;-71
2021/06/07 07:44:17;;;;;;;4.13;2.60;;;;;;;19.37;74.43;96629.38;5031619;28;20053;-71
2021/06/07 07:46:43;;;;;;;7.40;3.17;;;;;;;19.51;73.69;96624.06;5031835;28;20120;-73
2021/06/07 07:49:09;;;;;;;5.22;3.70;;;;;;;19.64;72.36;96624.72;5031193;28;20041;-71
2021/06/07 07:51:35;;;;;;;6.20;3.17;;;;;;;19.72;73.85;96631.13;5031516;28;20507;-71
2021/06/07 07:54:01;;;;;;;4.82;3.03;;;;;;;19.78;72.43;96618.59;5031786;28;20092;-71
2021/06/07 07:56:28;;;;;;;3.22;2.00;;;;;;;19.85;71.96;96626.22;5031641;28;20041;-71
2021/06/07 07:58:54;;;;;;;4.93;2.78;;;;;;;19.87;71.82;96627.44;5031509;28;20049;-71
2021/06/07 08:01:20;;;;;;;4.57;2.83;;;;;;;19.88;70.23;96629.03;5042185;28;20086;-71
2021/06/07 08:03:46;;;;;;;4.22;2.60;;;;;;;19.83;70.39;96620.25;5032542;28;20514;-71
2021/06/07 08:06:12;;;;;;;4.40;2.95;;;;;;;19.76;70.82;96626.47;5031065;28;20053;-71
2021/06/07 08:08:38;;;;;;;5.50;2.85;;;;;;;19.80;71.38;96616.28;5031490;28;20526;-71
2021/06/07 08:11:04;;;;;;;5.00;3.00;;;;;;;19.99;69.30;96612.59;5030846;28;20512;-71
2021/06/07 08:13:31;;;;;;;5.00;3.10;;;;;;;20.56;67.51;96610.63;5031365;28;20385;-71
2021/06/07 08:15:57;;;;;;;5.63;3.00;;;;;;;20.95;68.19;96613.84;5031464;28;20038;-71
2021/06/07 08:18:24;;;;;;;5.00;2.15;;;;;;;21.30;66.12;96618.19;5030614;28;20550;-71
2021/06/07 08:20:51;;;;;;;3.88;2.60;;;;;;;21.04;63.74;96611.59;5031280;28;20049;-71
2021/06/07 08:23:17;;;;;;;5.97;3.20;;;;;;;21.53;63.37;96613.25;5030844;28;20041;-71
2021/06/07 08:25:44;;;;;;;4.88;2.90;;;;;;;22.45;64.72;96609.53;5031261;28;20037;-71
2021/06/07 08:28:10;;;;;;;3.60;2.42;;;;;;;23.51;62.07;96615.78;5030735;28;20183;-71
2021/06/07 08:30:37;;;;;;;3.65;1.95;;;;;;;24.40;55.47;96604.63;5036260;28;20052;-72
2021/06/07 08:33:04;;;;;;;3.47;1.70;;;;;;;24.99;53.85;96613.09;5050605;28;20048;-71
2021/06/07 08:35:30;;;;;;;3.22;1.40;;;;;;;25.65;53.93;96607.53;5051032;28;20060;-71
2021/06/07 08:37:56;;;;;;;2.17;1.50;;;;;;;26.40;50.88;96614.41;5050980;28;20049;-71
2021/06/07 08:40:22;;;;;;;2.10;1.50;;;;;;;26.61;47.41;96603.03;5032643;28;20037;-71
2021/06/07 08:42:49;;;;;;;2.72;1.70;;;;;;;26.75;47.05;96608.44;5050937;28;20053;-71
2021/06/07 08:45:18;;;;;;;2.38;1.40;;;;;;;26.66;46.85;96608.16;5050402;28;20056;-71
2021/06/07 08:47:47;;;;;;;5.57;2.28;;;;;;;26.10;49.60;96607.56;5050759;28;20055;-70
2021/06/07 08:50:15;;;;;;;4.35;2.13;;;;;;;25.44;50.72;96607.69;5050277;28;20045;-71
2021/06/07 08:52:43;;;;;;;9.38;3.53;;;;;;;24.71;52.69;96611.25;5050640;28;20049;-71
2021/06/07 08:55:11;;;;;;;6.00;2.45;;;;;;;24.05;53.66;96611.81;5050404;28;20041;-70
2021/06/07 08:57:41;;;;;;;4.47;2.20;;;;;;;23.50;55.60;96617.78;5050737;28;20045;-70
2021/06/07 09:00:10;;;;;;;8.45;3.22;;;;;;;23.04;57.11;96618.50;5049199;28;20065;-71
2021/06/07 09:02:38;;;;;;;5.80;2.40;;;;;;;22.71;59.41;96616.78;5041544;28;20049;-71
2021/06/07 09:05:07;;;;;;;5.57;2.35;;;;;;;22.38;57.11;96609.47;5030498;28;20056;-73
2021/06/07 09:07:48;;;;;;;4.55;2.15;;;;;;;22.37;61.33;96613.44;5030914;28;20053;-72
2021/06/07 09:10:15;;;;;;;4.38;2.13;;;;;;;22.59;62.51;96620.69;5030369;28;20057;-72
2021/06/07 09:12:42;;;;;;;6.57;2.63;;;;;;;22.45;60.88;96614.25;5030670;28;20050;-72
2021/06/07 09:15:13;;;;;;;5.75;2.35;;;;;;;22.28;60.01;96615.78;5030052;28;20044;-72
2021/06/07 09:17:44;;;;;;;7.55;2.55;;;;;;;22.44;61.22;96612.69;5030570;28;20061;-72
2021/06/07 09:20:16;;;;;;;4.32;2.75;;;;;;;22.51;61.10;96609.94;5030096;28;20049;-72
2021/06/07 09:22:49;;;;;;;7.20;3.20;;;;;;;22.47;59.71;96607.16;5030677;28;20556;-72
2021/06/07 09:25:17;;;;;;;6.47;2.80;;;;;;;22.51;60.20;96610.75;5030232;28;20099;-70
2021/06/07 09:27:59;;;;;;;7.22;3.20;;;;;;;22.48;56.68;96619.03;5030641;28;20049;-71
2021/06/07 09:30:27;;;;;;;5.15;2.72;;;;;;;22.21;57.49;96610.97;5033453;28;20044;-71
2021/06/07 09:33:15;;;;;;;5.22;2.55;;;;;;;22.14;58.51;96606.19;5038965;28;20069;-72
2021/06/07 09:35:42;;;;;;;5.82;3.20;;;;;;;22.08;59.69;96604.94;5030398;28;20045;-72
2021/06/07 09:38:09;;;;;;;6.53;3.42;;;;;;;22.08;60.58;96607.72;5030007;28;20037;-72
2021/06/07 09:40:35;;;;;;;5.80;4.07;;;;;;;22.10;62.93;96610.09;5030469;28;20044;-72
2021/06/07 09:43:03;;;;;;;4.45;3.40;;;;;;;22.03;59.06;96610.03;5030394;28;20045;-72
2021/06/07 09:45:44;;;;;;;5.68;4.07;;;;;;;21.86;59.60;96612.31;5030105;28;20046;-72
2021/06/07 09:48:15;;;;;;;6.30;3.78;;;;;;;21.71;58.68;96605.06;5029994;28;20049;-72
2021/06/07 09:50:59;;;;;;;8.10;3.95;;;;;;;21.49;60.74;96609.66;5030322;28;20046;-71
2021/06/07 09:53:45;;;;;;;6.13;3.88;;;;;;;21.40;62.75;96611.94;5030233;28;20049;-72
2021/06/07 09:56:11;;;;;;;4.88;3.67;;;;;;;21.36;63.94;96605.59;5033493;28;20046;-72
2021/06/07 09:58:39;;;;;;;7.93;4.70;;;;;;;21.38;65.10;96611.53;5033825;28;20045;-72
2021/06/07 10:01:13;;;;;;;6.47;4.40;;;;;;;21.43;63.81;96605.63;5042277;28;20491;-72
2021/06/07 10:03:48;;;;;;;6.13;4.55;;;;;;;21.34;63.60;96607.94;5035899;28;20060;-72
2021/06/07 10:06:22;;;;;;;5.63;4.07;;;;;;;21.27;64.12;96608.63;5033332;28;20095;-72
2021/06/07 10:08:51;;;;;;;4.78;3.60;;;;;;;21.30;64.91;96596.03;5033763;28;20055;-72
2021/06/07 10:11:19;;;;;;;5.65;4.90;;;;;;;21.25;63.88;96599.91;5033266;28;20042;-72
2021/06/07 10:13:46;;;;;;;6.80;5.43;;;;;;;21.24;64.13;96600.28;5033460;28;20381;-72
2021/06/07 10:16:12;;;;;;;6.80;5.45;;;;;;;21.19;63.84;96600.63;5033034;28;20042;-72
2021/06/07 10:18:38;;;;;;;7.32;5.55;;;;;;;21.18;64.51;96610.13;5033609;28;20052;-72
2021/06/07 10:21:05;;;;;;;7.57;4.90;;;;;;;21.20;65.06;96602.25;5033098;28;20041;-72
2021/06/07 10:23:34;;;;;;;6.53;5.18;;;;;;;21.27;65.08;96607.84;5033208;28;20037;-72
2021/06/07 10:26:04;;;;;;;6.35;4.90;;;;;;;21.28;62.04;96604.69;5033498;28;20041;-72
2021/06/07 10:28:32;;;;;;;6.20;4.50;;;;;;;21.24;61.06;96605.81;5033105;28;20045;-72
2021/06/07 10:30:59;;;;;;;5.93;3.67;;;;;;;21.28;62.22;96609.44;5041071;28;20051;-72
2021/06/07 10:33:33;;;;;;;5.82;3.95;;;;;;;21.30;62.58;96613.44;5036924;28;20046;-72
2021/06/07 10:36:30;;;;;;;6.88;4.07;;;;;;;21.28;62.09;96606.66;5015466;28;20053;-72
2021/06/07 10:39:28;;;;;;;7.82;4.20;;;;;;;21.29;60.25;96608.25;5032991;28;20133;-72
2021/06/07 10:42:18;;;;;;;6.00;4.22;;;;;;;21.32;63.00;96605.53;5033113;28;20068;-72
2021/06/07 10:44:47;;;;;;;5.85;4.03;;;;;;;21.44;61.66;96606.44;5032946;28;20041;-72
2021/06/07 10:47:15;;;;;;;7.60;4.53;;;;;;;21.46;58.67;96599.34;5032543;28;20504;-72
2021/06/07 10:49:44;;;;;;;5.13;3.83;;;;;;;21.52;61.21;96608.88;5032784;28;20052;-72
2021/06/07 10:52:14;;;;;;;5.35;4.00;;;;;;;21.63;61.05;96609.78;5032236;28;20424;-72
2021/06/07 10:54:43;;;;;;;6.05;4.15;;;;;;;21.93;63.70;96605.25;5032661;28;20041;-72
2021/06/07 10:57:33;;;;;;;6.97;4.60;;;;;;;22.22;58.96;96603.44;5032360;28;20111;-72
2021/06/07 11:00:01;;;;;;;6.30;4.45;;;;;;;22.54;60.25;96603.59;5033653;28;20096;-72
2021/06/07 11:02:34;;;;;;;6.68;4.95;;;;;;;22.64;60.46;96600.09;5043815;28;20037;-72
2021/06/07 11:05:03;;;;;;;7.03;5.25;;;;;;;22.73;58.05;96592.19;5031371;28;20451;-72
2021/06/07 11:07:29;;;;;;;8.02;5.93;;;;;;;22.92;58.88;96602.22;5032390;28;20389;-72
2021/06/07 11:10:25;;;;;;;7.18;5.78;;;;;;;23.08;57.87;96596.28;5032563;28;20048;-72
2021/06/07 11:12:54;;;;;;;7.07;5.50;;;;;;;23.12;55.60;96597.84;5032549;28;20037;-72
2021/06/07 11:15:22;;;;;;;10.07;6.15;;;;;;;23.32;59.92;96603.06;5031967;28;20050;-72
2021/06/07 11:17:49;;;;;;;9.13;6.45;;;;;;;23.50;56.14;96594.75;5032251;28;20044;-72
2021/06/07 11:20:32;;;;;;;8.05;6.80;;;;;;;23.66;54.67;96598.75;5031702;28;20522;-72
2021/06/07 11:23:06;;;;;;;8.95;6.53;;;;;;;23.76;56.02;96590.81;5032247;28;20128;-72
2021/06/07 11:25:49;;;;;;;7.93;5.55;;;;;;;23.84;56.42;96589.59;5031852;28;20045;-72
2021/06/07 11:28:33;;;;;;;8.60;6.13;;;;;;;23.72;55.07;96584.44;5031655;28;20042;-72
2021/06/07 11:31:00;;;;;;;8.27;7.18;;;;;;;23.58;52.62;96583.22;5040020;28;20099;-72
2021/06/07 11:33:27;;;;;;;8.13;7.20;;;;;;;23.46;54.98;96580.06;5035394;28;20037;-72
2021/06/07 11:35:55;;;;;;;7.95;6.43;;;;;;;23.44;56.84;96577.69;5031994;28;20412;-72